Time;durP1;ratioP1;P1;durP2;ratioP2;P2;SDS_P1;SDS_P2;PMS_P1;PMS_P2;Temp;Humidity;BMP_temperature;BMP_pressure;BME280_temperature;BME280_humidity;BME280_pressure;Samples;Min_cycle;Max_cycle;Signal;HPM_P1;HPM_P2
2022/11/08 00:02:00;;;;;;;8.30;5.00;;;8.20;75.70;;;6.68;100.00;96144.34;4967116;28;20438;-70
2022/11/08 00:04:26;;;;;;;10.60;5.50;;;8.20;77.00;;;6.65;100.00;96136.84;4955034;28;20438;-69
2022/11/08 00:15:07;;;;;;;7.68;4.43;;;8.10;77.80;;;6.48;100.00;96138.63;4964231;28;20540;-70
2022/11/08 00:17:33;;;;;;;8.60;4.85;;;8.10;77.40;;;6.46;100.00;96132.75;4970834;28;20332;-69
2022/11/08 00:19:59;;;;;;;8.20;4.60;;;8.00;77.30;;;6.42;100.00;96134.06;4968708;28;20693;-69
2022/11/08 00:22:28;;;;;;;7.60;4.78;;;8.00;77.70;;;6.39;100.00;96134.38;4946740;28;20749;-70
2022/11/08 00:24:54;;;;;;;8.65;5.07;;;7.90;78.50;;;6.38;100.00;96127.53;4945998;28;20337;-69
2022/11/08 00:27:22;;;;;;;10.18;5.65;;;7.90;78.70;;;6.36;100.00;96124.25;4943438;28;20300;-69
2022/11/08 00:29:48;;;;;;;9.98;4.93;;;8.00;79.00;;;6.35;100.00;96123.44;4946894;28;20424;-70
2022/11/08 00:32:17;;;;;;;8.73;5.47;;;7.90;79.00;;;6.33;100.00;96128.00;4959193;28;20554;-69
2022/11/08 00:34:43;;;;;;;10.48;5.32;;;7.90;79.20;;;6.30;100.00;96130.13;4930406;28;20315;-69
2022/11/08 00:37:10;;;;;;;9.68;5.28;;;7.80;79.60;;;6.28;100.00;96132.06;4961080;28;20352;-69
2022/11/08 00:39:36;;;;;;;9.50;4.75;;;7.80;79.50;;;6.25;100.00;96120.16;4943895;28;20420;-69
2022/11/08 00:42:02;;;;;;;8.77;5.10;;;7.80;79.60;;;6.25;100.00;96124.56;4942767;28;20340;-70
2022/11/08 00:44:28;;;;;;;10.73;5.13;;;7.80;79.40;;;6.23;100.00;96126.53;4945329;28;20471;-69
2022/11/08 00:46:54;;;;;;;8.98;4.88;;;7.80;79.50;;;6.21;100.00;96128.47;4912257;28;20574;-69
2022/11/08 00:49:21;;;;;;;9.23;4.97;;;7.80;79.40;;;6.17;100.00;96124.56;4945156;28;20361;-69
2022/11/08 00:51:47;;;;;;;9.25;5.50;;;7.70;79.40;;;6.15;100.00;96119.50;4943858;28;20706;-70
2022/11/08 00:54:15;;;;;;;11.30;5.70;;;7.70;79.40;;;6.12;100.00;96110.19;4959091;28;20738;-69
2022/11/08 00:56:41;;;;;;;9.60;4.72;;;7.70;79.40;;;6.10;100.00;96108.69;4960726;28;20383;-70
2022/11/08 00:59:13;;;;;;;11.18;5.65;;;7.70;79.50;;;6.09;100.00;96113.09;4965526;28;20535;-69
2022/11/08 01:01:39;;;;;;;7.22;4.43;;;7.70;79.40;;;6.05;100.00;96103.97;4960349;28;20313;-70
2022/11/08 01:04:06;;;;;;;6.70;4.32;;;7.60;79.50;;;6.04;100.00;96104.13;4954220;28;20343;-69
2022/11/08 01:06:32;;;;;;;6.63;4.07;;;7.60;79.50;;;6.01;100.00;96094.81;4951680;28;20593;-70
2022/11/08 01:08:58;;;;;;;8.40;4.72;;;7.60;79.70;;;5.98;100.00;96084.72;4962534;28;20493;-69
2022/11/08 01:11:25;;;;;;;8.60;4.43;;;7.60;79.60;;;5.97;100.00;96093.50;4954819;28;20332;-70
2022/11/08 01:13:51;;;;;;;7.40;4.57;;;7.60;79.60;;;5.94;100.00;96083.41;4905362;28;20485;-68
2022/11/08 01:16:20;;;;;;;8.23;4.60;;;7.50;79.70;;;5.92;100.00;96082.75;4940967;28;20342;-68
2022/11/08 01:18:48;;;;;;;9.43;5.10;;;7.50;79.80;;;5.89;100.00;96083.03;4910909;28;20063;-69
2022/11/08 01:21:14;;;;;;;7.85;4.95;;;7.50;79.80;;;5.86;100.00;96072.88;4918718;28;20334;-69
2022/11/08 01:23:41;;;;;;;9.65;4.97;;;7.50;79.70;;;5.83;100.00;96066.19;4938456;28;20483;-68
2022/11/08 01:26:11;;;;;;;7.18;4.15;;;7.40;79.70;;;5.83;100.00;96081.03;4944850;28;20353;-69
2022/11/08 01:28:37;;;;;;;9.10;4.60;;;7.40;79.60;;;5.80;100.00;96073.53;4927734;28;20999;-69
2022/11/08 01:31:05;;;;;;;10.05;4.15;;;7.40;79.70;;;5.79;100.00;96071.91;4926221;28;20375;-68
2022/11/08 01:33:31;;;;;;;7.35;4.07;;;7.30;79.70;;;5.77;100.00;96066.84;4958127;28;20344;-68
2022/11/08 01:35:57;;;;;;;11.00;3.72;;;7.40;79.70;;;5.76;100.00;96067.00;4925967;28;20422;-69
2022/11/08 01:38:24;;;;;;;6.70;3.70;;;7.40;79.80;;;5.75;100.00;96065.38;4943684;28;20811;-68
2022/11/08 01:40:50;;;;;;;7.85;4.05;;;7.40;79.90;;;5.73;100.00;96064.72;4930423;28;20353;-69
2022/11/08 01:43:25;;;;;;;7.03;3.95;;;7.30;79.80;;;5.70;100.00;96057.22;4966751;28;20574;-68
2022/11/08 01:46:18;;;;;;;6.10;3.90;;;7.30;79.60;;;5.68;100.00;96059.16;4968875;28;20603;-68
2022/11/08 01:49:17;;;;;;;6.82;3.55;;;7.30;79.50;;;5.64;100.00;96055.22;4983013;28;20360;-68
2022/11/08 01:52:00;;;;;;;5.82;3.65;;;7.30;79.40;;;5.60;100.00;96054.72;4984018;28;20394;-68
2022/11/08 01:54:56;;;;;;;4.90;3.10;;;7.20;79.40;;;5.58;100.00;96056.69;4952048;28;20364;-70
2022/11/08 01:57:50;;;;;;;5.20;3.45;;;7.20;79.70;;;5.58;100.00;96055.88;4961098;28;20385;-68
2022/11/08 02:00:16;;;;;;;6.25;3.30;;;7.10;79.20;;;5.52;100.00;96045.09;4939472;28;20570;-70
2022/11/08 02:02:44;;;;;;;7.38;3.58;;;7.10;78.70;;;5.47;100.00;96049.97;4950835;28;20518;-71
2022/11/08 02:05:25;;;;;;;4.72;2.75;;;7.10;78.50;;;5.44;100.00;96045.09;4961889;28;20430;-71
2022/11/08 02:08:05;;;;;;;4.43;2.97;;;7.00;78.40;;;5.41;100.00;96039.34;4955783;27;20031;-71
2022/11/08 02:10:40;;;;;;;5.22;2.90;;;7.00;78.60;;;5.37;100.00;96044.06;4960035;28;20753;-71
2022/11/08 02:13:15;;;;;;;5.82;3.20;;;7.00;79.20;;;5.36;100.00;96033.78;4925011;28;20403;-71
2022/11/08 02:15:42;;;;;;;7.28;3.13;;;6.90;79.40;;;5.32;100.00;96035.91;4946509;28;20481;-71
2022/11/08 02:18:08;;;;;;;5.28;2.90;;;6.90;79.70;;;5.31;100.00;96029.06;4946206;28;20512;-71
2022/11/08 02:20:34;;;;;;;5.38;2.80;;;6.90;79.80;;;5.30;100.00;96026.59;4956926;28;20294;-71
2022/11/08 02:23:19;;;;;;;6.00;3.53;;;6.90;79.80;;;5.28;100.00;96018.13;4955153;28;20329;-71
2022/11/08 02:25:45;;;;;;;5.50;3.05;;;6.90;79.60;;;5.25;100.00;96016.66;4949931;27;20723;-72
2022/11/08 02:28:11;;;;;;;7.05;2.97;;;6.90;79.60;;;5.22;100.00;96027.41;4931761;28;20221;-70
2022/11/08 02:30:37;;;;;;;4.55;2.78;;;6.90;79.40;;;5.20;100.00;96024.09;4947252;28;20601;-72
2022/11/08 02:33:18;;;;;;;4.22;3.10;;;6.90;79.30;;;5.20;100.00;96026.72;4950716;28;20349;-70
2022/11/08 02:35:46;;;;;;;5.00;3.30;;;6.90;79.50;;;5.16;100.00;96025.41;4929751;28;20371;-69
2022/11/08 02:38:12;;;;;;;5.28;2.80;;;6.90;79.60;;;5.14;100.00;96022.13;4947626;28;20389;-69
2022/11/08 02:40:51;;;;;;;5.80;3.17;;;6.80;79.60;;;5.14;100.00;96024.75;4930810;28;20358;-70
2022/11/08 02:43:17;;;;;;;4.32;2.97;;;6.80;79.70;;;5.13;100.00;96018.72;4933080;28;20430;-69
2022/11/08 02:45:44;;;;;;;4.03;2.72;;;6.80;79.70;;;5.12;100.00;96021.47;4914809;28;20187;-69
2022/11/08 02:48:10;;;;;;;7.00;2.75;;;6.80;79.70;;;5.11;100.00;96023.28;4921282;28;20548;-68
2022/11/08 02:50:36;;;;;;;6.07;2.92;;;6.80;79.80;;;5.10;100.00;96010.38;4935002;28;20452;-68
2022/11/08 02:53:02;;;;;;;4.47;2.65;;;6.70;79.80;;;5.09;100.00;96006.16;4947195;28;20411;-70
2022/11/08 02:55:28;;;;;;;5.60;2.75;;;6.70;79.80;;;5.06;100.00;96009.06;4931536;28;20586;-69
2022/11/08 02:57:55;;;;;;;4.78;2.63;;;6.70;79.70;;;5.05;100.00;96010.88;4917528;28;20529;-69
2022/11/08 03:00:21;;;;;;;5.13;2.80;;;6.70;79.60;;;5.03;100.00;95999.78;4938563;28;20467;-69
2022/11/08 03:02:51;;;;;;;5.65;2.53;;;6.70;79.60;;;5.03;100.00;96001.56;4930306;28;20439;-69
2022/11/08 03:05:18;;;;;;;5.07;2.53;;;6.60;79.50;;;5.01;100.00;96000.91;4950197;28;20521;-70
2022/11/08 03:07:44;;;;;;;4.47;2.55;;;6.60;79.50;;;4.99;100.00;96002.88;4939545;28;20855;-69
2022/11/08 03:10:10;;;;;;;5.22;2.33;;;6.60;79.10;;;4.97;100.00;96002.19;4949214;28;20333;-69
2022/11/08 03:12:37;;;;;;;3.22;2.20;;;6.60;79.00;;;4.96;100.00;95997.94;4951885;28;20419;-70
2022/11/08 03:15:05;;;;;;;4.40;2.50;;;6.60;79.20;;;4.93;100.00;95994.69;4923827;28;20408;-70
2022/11/08 03:17:31;;;;;;;6.47;2.90;;;6.60;79.20;;;4.92;100.00;95993.03;4947378;28;20430;-70
2022/11/08 03:19:57;;;;;;;5.47;2.80;;;6.60;79.30;;;4.92;100.00;95989.63;4913898;28;20547;-72
2022/11/08 03:22:23;;;;;;;44.15;26.13;;;6.60;79.50;;;4.92;100.00;95993.03;4934941;28;20362;-70
2022/11/08 03:24:52;;;;;;;36.42;20.92;;;6.60;80.10;;;4.92;100.00;95990.44;4917308;28;20380;-69
2022/11/08 03:27:18;;;;;;;17.55;10.00;;;6.60;80.30;;;4.90;100.00;95997.59;4960783;28;20375;-70
2022/11/08 03:29:45;;;;;;;8.43;4.53;;;6.60;80.80;;;4.92;100.00;96000.03;4963402;28;20380;-72
2022/11/08 03:32:11;;;;;;;20.67;11.30;;;6.60;80.50;;;4.93;100.00;95997.28;4918542;28;20320;-69
2022/11/08 03:34:38;;;;;;;28.13;16.95;;;6.60;80.40;;;4.90;100.00;96002.81;4930131;28;20443;-72
2022/11/08 03:37:05;;;;;;;12.25;6.38;;;6.60;80.30;;;4.90;100.00;95999.38;4952283;28;20334;-70
2022/11/08 03:39:31;;;;;;;9.32;3.72;;;6.60;79.90;;;4.90;100.00;96009.81;4915784;28;20314;-70
2022/11/08 03:41:59;;;;;;;5.32;3.17;;;6.60;80.10;;;4.88;100.00;96002.16;4939872;28;20313;-70
2022/11/08 03:44:25;;;;;;;6.20;3.13;;;6.50;80.30;;;4.85;100.00;95999.88;4990380;27;20592;-69
2022/11/08 03:46:51;;;;;;;7.50;3.63;;;6.50;80.30;;;4.86;100.00;95998.06;5028456;27;20599;-69
2022/11/08 03:49:19;;;;;;;5.80;2.92;;;6.50;80.00;;;4.84;100.00;95992.19;5011714;27;20293;-69
2022/11/08 03:51:46;;;;;;;5.57;3.20;;;6.50;80.00;;;4.84;100.00;95989.59;4985009;27;20304;-70
2022/11/08 03:54:12;;;;;;;5.05;2.33;;;6.50;79.90;;;4.82;100.00;95997.56;4968374;27;20347;-70
2022/11/08 03:56:38;;;;;;;5.63;3.40;;;6.50;79.90;;;4.81;100.00;95995.94;4952682;27;20303;-70
2022/11/08 03:59:04;;;;;;;3.75;2.15;;;6.50;80.00;;;4.81;100.00;95984.69;4951114;27;20289;-70
2022/11/08 04:01:30;;;;;;;5.63;2.63;;;6.50;80.20;;;4.80;100.00;95978.69;4951958;27;20315;-71
2022/11/08 04:03:56;;;;;;;4.88;2.55;;;6.50;80.20;;;4.78;100.00;95978.00;4968493;27;20359;-69
2022/11/08 04:06:22;;;;;;;3.97;2.10;;;6.50;80.30;;;4.78;100.00;95974.59;4947990;28;20337;-72
2022/11/08 04:08:48;;;;;;;4.82;2.35;;;6.50;80.40;;;4.78;100.00;95980.63;4949605;28;20368;-69
2022/11/08 04:16:44;;;;;;;5.32;3.35;;;6.50;80.70;;;4.76;100.00;95974.75;4958006;28;20403;-71
2022/11/08 04:21:54;;;;;;;3.38;1.95;;;6.50;80.20;;;4.70;100.00;95967.53;4965938;28;20043;-71
2022/11/08 04:24:20;;;;;;;11.82;7.35;;;6.40;79.80;;;4.68;100.00;95964.28;5005084;28;20353;-69
2022/11/08 04:26:46;;;;;;;23.13;14.60;;;6.40;80.10;;;4.69;100.00;95962.47;4998609;28;20032;-71
2022/11/08 04:29:12;;;;;;;18.20;12.07;;;6.40;80.90;;;4.70;100.00;95972.75;4992036;28;20035;-69
2022/11/08 04:31:38;;;;;;;14.93;8.85;;;6.40;80.90;;;4.71;100.00;95974.38;4948027;28;20406;-70
2022/11/08 04:34:05;;;;;;;24.42;15.77;;;6.50;80.80;;;4.73;100.00;95959.41;4955195;28;20478;-70
2022/11/08 04:36:32;;;;;;;6.82;5.03;;;6.50;80.60;;;4.67;100.00;95952.22;4939320;28;20353;-69
2022/11/08 04:38:58;;;;;;;3.80;2.13;;;6.40;79.40;;;4.66;100.00;95965.41;4914579;28;20539;-71
2022/11/08 04:41:24;;;;;;;2.80;1.60;;;6.30;79.40;;;4.63;100.00;95961.31;4939655;28;20423;-71
2022/11/08 04:43:53;;;;;;;4.32;1.90;;;6.30;79.40;;;4.57;100.00;95957.56;4903628;28;20705;-70
2022/11/08 04:46:21;;;;;;;3.25;1.85;;;6.20;79.30;;;4.53;100.00;95950.22;4920556;28;20369;-71
2022/11/08 04:48:50;;;;;;;6.13;3.65;;;6.20;79.50;;;4.53;100.00;95950.22;4980651;28;20036;-70
2022/11/08 04:51:28;;;;;;;4.95;2.45;;;6.20;80.10;;;4.54;100.00;95957.88;5045830;28;20494;-68
2022/11/08 04:53:55;;;;;;;3.42;2.20;;;6.20;80.20;;;4.53;100.00;95955.44;5040340;28;20036;-68
2022/11/08 04:56:21;;;;;;;4.55;3.65;;;6.20;80.00;;;4.49;100.00;95943.66;5086127;28;20031;-71
2022/11/08 04:58:52;;;;;;;5.45;3.28;;;6.20;80.40;;;4.48;100.00;95948.06;5033029;28;20043;-71
2022/11/08 05:01:36;;;;;;;3.63;2.58;;;6.10;80.90;;;4.48;100.00;95948.06;5038118;28;20035;-71
2022/11/08 05:04:02;;;;;;;4.10;2.50;;;6.20;81.30;;;4.49;100.00;95943.66;5051469;28;20522;-70
2022/11/08 05:06:30;;;;;;;4.47;2.10;;;6.20;81.20;;;4.47;100.00;95937.78;5062047;28;20516;-71
2022/11/08 05:08:56;;;;;;;3.78;2.00;;;6.20;80.70;;;4.43;100.00;95941.69;5048603;28;20040;-71
2022/11/08 05:11:23;;;;;;;4.38;2.00;;;6.10;80.20;;;4.42;100.00;95953.06;5019963;28;20338;-71
2022/11/08 05:13:49;;;;;;;4.40;2.38;;;6.10;80.20;;;4.41;100.00;95944.44;5047605;28;20039;-71
2022/11/08 05:16:17;;;;;;;6.47;2.60;;;6.00;80.10;;;4.36;100.00;95938.06;5050136;28;20096;-71
2022/11/08 05:18:43;;;;;;;3.53;2.40;;;6.10;80.20;;;4.29;100.00;95928.25;5053216;28;20063;-69
2022/11/08 05:23:54;;;;;;;4.35;2.78;;;6.00;80.60;;;4.25;100.00;95932.13;5070912;28;20069;-69
2022/11/08 05:26:20;;;;;;;6.07;3.58;;;5.90;80.70;;;4.24;100.00;95927.91;5054538;28;20118;-77
2022/11/08 05:28:46;;;;;;;5.63;3.80;;;5.90;81.10;;;4.22;100.00;95924.63;5055767;28;20038;-76
2022/11/08 05:31:12;;;;;;;5.97;4.40;;;5.90;81.20;;;4.23;100.00;95930.66;5056525;28;20035;-77
2022/11/08 05:33:38;;;;;;;26.20;17.90;;;6.00;81.30;;;4.24;100.00;95921.88;5035500;28;20148;-78
2022/11/08 05:36:06;;;;;;;22.77;13.35;;;6.10;82.00;;;4.25;100.00;95916.53;5076745;28;20046;-76
2022/11/08 05:38:32;;;;;;;8.55;5.43;;;6.00;82.40;;;4.25;100.00;95920.91;5039888;28;20131;-76
2022/11/08 05:41:18;;;;;;;6.57;4.55;;;6.00;82.20;;;4.26;100.00;95927.75;5056539;28;20111;-77
2022/11/08 05:43:45;;;;;;;6.05;4.32;;;6.00;82.10;;;4.24;100.00;95920.09;5027582;28;20109;-76
2022/11/08 05:46:11;;;;;;;6.38;4.60;;;6.00;82.00;;;4.24;100.00;95922.69;5074664;28;20012;-77
2022/11/08 05:48:37;;;;;;;7.40;4.63;;;6.00;82.00;;;4.24;100.00;95930.50;5039999;28;20043;-77
2022/11/08 05:51:03;;;;;;;9.32;6.85;;;6.00;81.90;;;4.19;100.00;95930.16;5069137;28;20047;-79
2022/11/08 05:53:29;;;;;;;11.30;6.80;;;5.90;81.90;;;4.16;100.00;95933.06;5075441;28;20036;-77
2022/11/08 05:55:59;;;;;;;15.80;9.48;;;5.90;81.90;;;4.16;100.00;95922.66;5035693;28;20166;-77
2022/11/08 05:58:29;;;;;;;16.33;9.50;;;5.90;81.80;;;4.15;100.00;95925.41;5035445;28;20558;-77
2022/11/08 06:01:06;;;;;;;13.68;8.75;;;5.80;81.70;;;4.13;100.00;95922.97;5019609;28;20028;-76
2022/11/08 06:03:32;;;;;;;10.07;6.85;;;5.80;81.70;;;4.13;100.00;95925.56;5038848;28;20036;-77
2022/11/08 06:06:14;;;;;;;6.38;5.03;;;5.80;81.70;;;4.11;100.00;95924.91;5039187;28;20462;-77
2022/11/08 06:08:40;;;;;;;5.53;3.95;;;5.80;81.70;;;4.09;100.00;95928.63;5055984;28;20359;-77
2022/11/08 06:11:09;;;;;;;6.97;4.22;;;5.80;81.80;;;4.08;100.00;95935.63;5039198;28;20089;-78
2022/11/08 06:13:35;;;;;;;6.35;4.38;;;5.80;81.80;;;4.08;100.00;95934.81;5034552;28;20043;-77
2022/11/08 06:16:02;;;;;;;7.53;4.82;;;5.80;81.80;;;4.04;100.00;95931.69;5042804;28;20032;-78
2022/11/08 06:18:29;;;;;;;5.90;4.10;;;5.70;82.10;;;4.03;100.00;95937.84;5055074;28;20549;-77
2022/11/08 06:20:57;;;;;;;12.02;4.63;;;5.80;82.10;;;4.05;100.00;95930.72;5039156;28;20032;-77
2022/11/08 06:23:23;;;;;;;6.10;4.03;;;5.80;82.00;;;4.06;100.00;95934.94;5036888;28;20395;-76
2022/11/08 06:25:49;;;;;;;5.45;4.00;;;5.80;82.00;;;4.05;100.00;95935.91;5034674;28;20024;-77
2022/11/08 06:28:15;;;;;;;5.75;3.47;;;5.80;82.20;;;4.05;100.00;95938.50;5052018;28;20089;-77
2022/11/08 06:30:40;;;;;;;6.45;4.13;;;5.80;82.10;;;4.07;100.00;95933.97;5051007;28;20116;-77
2022/11/08 06:33:06;;;;;;;6.25;3.55;;;5.90;81.80;;;4.07;100.00;95939.19;5071724;28;20063;-77
2022/11/08 06:35:32;;;;;;;8.55;3.90;;;5.90;81.80;;;4.06;100.00;95934.94;5054535;28;20119;-77
2022/11/08 06:37:58;;;;;;;5.45;3.50;;;5.80;81.50;;;4.08;100.00;95937.41;5055072;28;20139;-78
2022/11/08 06:40:23;;;;;;;5.40;3.00;;;5.90;81.10;;;4.07;100.00;95944.38;5043745;28;20497;-79
2022/11/08 06:42:49;;;;;;;5.30;3.00;;;5.90;80.80;;;4.07;100.00;95939.19;5049117;28;20039;-77
2022/11/08 06:45:15;;;;;;;6.22;3.10;;;5.90;80.20;;;4.08;100.00;95940.84;5039191;28;20122;-77
2022/11/08 06:47:41;;;;;;;5.53;3.13;;;5.90;80.40;;;4.10;100.00;95941.50;5053884;28;20549;-78
2022/11/08 06:50:06;;;;;;;4.20;2.90;;;6.00;80.30;;;4.13;100.00;95943.78;5037445;28;20040;-77
2022/11/08 06:52:32;;;;;;;4.85;3.03;;;6.10;80.30;;;4.16;100.00;95938.28;5054949;28;20131;-76
2022/11/08 06:54:58;;;;;;;5.25;3.30;;;6.10;80.10;;;4.22;100.00;95952.47;5055262;28;20220;-77
2022/11/08 06:57:24;;;;;;;5.75;2.50;;;6.20;79.60;;;4.23;100.00;95946.28;5039015;28;20485;-77
2022/11/08 06:59:49;;;;;;;7.65;3.22;;;6.20;79.20;;;4.28;100.00;95944.84;5033093;28;20123;-77
2022/11/08 07:02:15;;;;;;;4.97;3.00;;;6.20;79.30;;;4.35;100.00;95941.66;5055720;28;20128;-77
2022/11/08 07:04:41;;;;;;;4.90;2.83;;;6.30;79.40;;;4.41;100.00;95947.03;5038944;28;20571;-77
2022/11/08 07:07:07;;;;;;;6.43;2.95;;;6.40;79.90;;;4.50;100.00;95955.72;5056179;28;20112;-76
2022/11/08 07:09:32;;;;;;;4.68;3.10;;;6.60;80.10;;;4.58;100.00;95950.56;5037204;28;20105;-77
2022/11/08 07:11:58;;;;;;;5.65;3.20;;;6.60;80.10;;;4.69;100.00;95944.25;5052364;28;20877;-77
2022/11/08 07:14:24;;;;;;;3.95;2.80;;;6.80;80.10;;;4.81;100.00;95949.03;5062456;28;20079;-77
2022/11/08 07:16:49;;;;;;;4.82;2.90;;;7.00;79.80;;;4.94;100.00;95953.78;5059350;28;20444;-75
2022/11/08 07:19:15;;;;;;;4.47;2.75;;;7.30;79.50;;;5.06;100.00;95946.50;5051179;28;20482;-78
2022/11/08 07:21:41;;;;;;;6.55;2.88;;;7.50;78.50;;;5.16;100.00;95944.56;5051596;28;20690;-74
2022/11/08 07:24:07;;;;;;;5.72;3.33;;;7.70;77.70;;;5.27;100.00;95953.91;5067881;28;20441;-77
2022/11/08 07:26:33;;;;;;;5.90;3.40;;;7.60;77.40;;;5.33;100.00;95954.06;5088911;28;20110;-77
2022/11/08 07:28:58;;;;;;;5.28;3.40;;;7.70;77.10;;;5.39;100.00;95950.81;5052019;28;20056;-78
2022/11/08 07:31:24;;;;;;;5.90;3.63;;;7.80;76.60;;;5.48;100.00;95951.66;5055790;28;20035;-78
2022/11/08 07:33:50;;;;;;;5.38;3.20;;;8.20;75.70;;;5.59;100.00;95948.72;5055430;28;20148;-78
2022/11/08 07:36:15;;;;;;;6.30;3.22;;;8.40;74.90;;;5.70;100.00;95947.63;5059917;28;20597;-76
2022/11/08 07:38:41;;;;;;;5.60;3.55;;;8.60;74.00;;;5.82;100.00;95943.69;5052336;28;20451;-75
2022/11/08 07:41:08;;;;;;;5.75;3.05;;;8.80;73.50;;;5.91;100.00;95953.19;5051799;28;20051;-77
2022/11/08 07:43:33;;;;;;;7.57;3.60;;;8.90;72.90;;;6.02;100.00;95950.25;5039146;28;20036;-75
2022/11/08 07:46:00;;;;;;;6.45;3.33;;;9.00;72.60;;;6.13;100.00;95949.09;5072929;28;20027;-77
2022/11/08 07:48:27;;;;;;;7.03;3.63;;;9.10;72.30;;;6.25;100.00;95945.16;5068455;28;20847;-77
2022/11/08 07:50:53;;;;;;;6.55;2.97;;;9.30;72.30;;;6.37;100.00;95953.47;5037474;28;20025;-76
2022/11/08 07:53:19;;;;;;;9.02;3.50;;;9.40;71.60;;;6.49;100.00;95943.47;5053424;28;20122;-76
2022/11/08 07:55:46;;;;;;;4.93;2.72;;;9.60;71.30;;;6.54;100.00;95931.53;5052359;28;20051;-74
2022/11/08 07:58:12;;;;;;;6.78;3.17;;;9.30;71.50;;;6.66;100.00;95940.66;5048148;28;20028;-75
2022/11/08 08:00:39;;;;;;;4.50;2.75;;;9.40;71.40;;;6.78;100.00;95930.63;5035372;28;20059;-75
2022/11/08 08:03:06;;;;;;;6.30;2.92;;;9.50;71.50;;;6.89;100.00;95937.31;5035292;28;20028;-76
2022/11/08 08:05:35;;;;;;;5.93;2.72;;;9.50;71.20;;;7.02;100.00;95920.09;5069380;28;20517;-77
2022/11/08 08:08:03;;;;;;;4.25;2.85;;;9.50;70.70;;;7.07;100.00;95914.34;5051028;28;20054;-77
2022/11/08 08:10:29;;;;;;;4.10;2.67;;;9.50;70.20;;;7.18;100.00;95924.41;5052286;28;20127;-76
2022/11/08 08:12:55;;;;;;;5.40;3.10;;;9.70;69.70;;;7.30;100.00;95914.38;5053433;28;20031;-76
2022/11/08 08:15:21;;;;;;;4.93;3.05;;;10.00;69.50;;;7.48;100.00;95924.56;5028270;28;20529;-75
2022/11/08 08:17:47;;;;;;;6.13;3.15;;;10.30;68.90;;;7.65;100.00;95918.22;5053806;28;20043;-75
2022/11/08 08:20:13;;;;;;;4.93;2.85;;;10.60;67.80;;;7.87;100.00;95921.81;5054792;28;20115;-75
2022/11/08 08:22:49;;;;;;;4.63;2.58;;;11.00;66.60;;;8.09;100.00;95922.78;5087956;28;20071;-75
2022/11/08 08:25:15;;;;;;;4.80;2.45;;;11.30;65.40;;;8.30;100.00;95928.94;5064185;28;20024;-74
2022/11/08 08:27:49;;;;;;;3.20;2.03;;;11.70;63.90;;;8.55;99.70;95921.69;5070195;28;20155;-73
2022/11/08 08:30:16;;;;;;;5.03;2.85;;;12.20;62.40;;;8.79;99.03;95928.47;5071962;28;20093;-76
2022/11/08 08:32:42;;;;;;;7.72;2.55;;;12.70;61.20;;;9.07;99.91;95920.75;5070311;28;20032;-75
2022/11/08 08:35:08;;;;;;;5.70;2.60;;;13.20;60.00;;;9.34;97.96;95915.81;5061237;28;20028;-76
2022/11/08 08:37:34;;;;;;;5.18;3.05;;;14.00;57.20;;;9.59;96.33;95916.25;5053564;28;20035;-75
2022/11/08 08:39:59;;;;;;;6.22;2.47;;;14.10;56.20;;;9.85;93.90;95928.84;5054430;28;20020;-75
2022/11/08 08:42:25;;;;;;;5.05;2.45;;;14.40;55.30;;;10.16;93.15;95926.66;5053658;28;20031;-73
2022/11/08 08:44:51;;;;;;;3.67;2.40;;;15.00;54.00;;;10.46;91.73;95921.28;5083516;28;20087;-74
2022/11/08 08:47:16;;;;;;;6.88;2.15;;;15.50;52.30;;;10.76;90.69;95921.84;5051110;28;20064;-74
2022/11/08 08:49:42;;;;;;;3.67;2.20;;;15.80;51.30;;;11.05;88.83;95922.38;5056410;28;20063;-74
2022/11/08 08:52:08;;;;;;;3.92;2.13;;;16.20;50.20;;;11.37;87.97;95925.34;5068062;28;20024;-72
2022/11/08 08:54:34;;;;;;;6.97;2.50;;;16.60;49.50;;;11.71;86.43;95910.44;5089419;28;20220;-73
2022/11/08 08:56:59;;;;;;;4.25;2.22;;;17.20;48.00;;;12.04;85.00;95908.69;5090532;28;20066;-75
2022/11/08 08:59:27;;;;;;;5.75;2.33;;;17.80;46.10;;;12.40;82.98;95910.06;5089729;28;20059;-74
2022/11/08 09:01:52;;;;;;;3.50;2.05;;;18.40;45.30;;;12.78;81.88;95908.38;5067140;28;20020;-73
2022/11/08 09:04:18;;;;;;;17.92;12.43;;;19.10;43.10;;;13.12;80.91;95906.44;5091135;28;20062;-73
2022/11/08 09:06:44;;;;;;;4.50;3.30;;;19.70;42.40;;;13.51;78.34;95899.41;5027374;28;20101;-74
2022/11/08 09:09:10;;;;;;;9.82;7.72;;;20.40;40.80;;;13.70;78.04;95890.53;5052387;28;20070;-74
2022/11/08 09:11:35;;;;;;;4.10;2.63;;;19.10;43.00;;;13.77;76.88;95893.94;5070984;28;20465;-74
2022/11/08 09:14:01;;;;;;;3.53;2.53;;;19.10;43.30;;;13.92;75.83;95893.66;5068774;28;20417;-74
2022/11/08 09:16:27;;;;;;;4.20;1.90;;;20.10;41.50;;;14.18;75.39;95893.44;5054465;28;20549;-75
2022/11/08 09:18:52;;;;;;;5.32;1.95;;;21.50;38.90;;;14.41;74.39;95898.13;5053926;28;20485;-76
2022/11/08 09:21:18;;;;;;;4.55;2.20;;;21.00;39.00;;;14.56;73.83;95900.47;5071176;28;20419;-75
2022/11/08 09:23:44;;;;;;;5.07;1.85;;;22.20;37.80;;;14.89;73.14;95905.41;5080006;28;20505;-75
2022/11/08 09:26:10;;;;;;;2.70;1.88;;;23.90;34.60;;;15.35;72.87;95904.06;5062616;28;20502;-74
2022/11/08 09:28:36;;;;;;;4.28;1.80;;;25.30;32.70;;;15.78;72.04;95896.78;5070602;28;20020;-75
2022/11/08 09:31:07;;;;;;;3.60;1.70;;;26.50;30.60;;;16.20;65.72;95894.09;5070539;28;20107;-73
2022/11/08 09:33:33;;;;;;;4.53;2.00;;;27.20;28.80;;;16.56;69.77;95897.59;5074673;28;20056;-74
2022/11/08 09:36:00;;;;;;;4.03;2.08;;;26.70;29.50;;;16.90;68.17;95907.41;5087831;28;20154;-74
2022/11/08 09:38:26;;;;;;;3.13;1.80;;;27.20;29.00;;;17.25;67.38;95894.06;5074143;28;20038;-75
2022/11/08 09:41:16;;;;;;;4.72;1.98;;;27.90;28.30;;;17.41;59.45;95881.84;5074566;28;20466;-74
2022/11/08 09:44:31;;;;;;;3.65;1.55;;;25.40;31.00;;;17.21;56.53;95887.59;5104371;28;20039;-76
2022/11/08 09:47:01;;;;;;;2.90;1.60;;;22.80;34.10;;;16.99;63.43;95898.06;5084418;28;20047;-75
2022/11/08 09:49:34;;;;;;;2.97;1.80;;;22.00;36.30;;;16.78;58.80;95888.03;5090288;28;20030;-72
2022/11/08 09:52:00;;;;;;;3.08;1.90;;;22.20;35.90;;;16.71;61.94;95904.06;5053769;28;20028;-74
2022/11/08 09:54:41;;;;;;;5.57;2.10;;;22.60;36.00;;;16.70;57.48;95891.03;5069170;28;20089;-74
2022/11/08 09:57:47;;;;;;;2.97;1.80;;;22.80;35.10;;;16.74;57.13;95887.66;5054393;28;20035;-75
2022/11/08 10:00:13;;;;;;;7.15;1.98;;;23.60;34.30;;;16.83;61.22;95896.91;5083605;28;20024;-74
2022/11/08 10:02:38;;;;;;;2.28;1.58;;;25.00;32.60;;;17.10;61.01;95891.91;5083313;28;20795;-74
2022/11/08 10:05:08;;;;;;;4.60;2.00;;;27.10;29.80;;;17.50;60.09;95891.09;5069451;28;20035;-74
2022/11/08 10:08:08;;;;;;;6.72;1.88;;;29.10;26.80;;;18.13;56.08;95884.78;5069002;28;20087;-74
2022/11/08 10:10:56;;;;;;;2.97;1.48;;;30.90;25.30;;;18.91;54.94;95885.69;5104551;28;20056;-74
2022/11/08 10:13:31;;;;;;;5.07;1.60;;;32.10;23.80;;;19.58;54.25;95870.28;5090050;28;20034;-74
2022/11/08 10:16:13;;;;;;;4.10;1.70;;;32.50;23.30;;;20.16;54.06;95868.69;5090832;28;20027;-74
2022/11/08 10:18:41;;;;;;;5.63;1.60;;;32.70;23.20;;;20.55;55.03;95879.13;5089828;28;20032;-74
2022/11/08 10:21:57;;;;;;;5.50;1.60;;;30.70;25.10;;;20.80;48.97;95865.13;5106715;28;20500;-75
2022/11/08 10:24:34;;;;;;;3.35;1.58;;;28.70;27.50;;;20.71;49.73;95862.16;5086127;28;20064;-75
2022/11/08 10:27:01;;;;;;;4.25;1.67;;;27.50;29.30;;;20.69;54.04;95866.16;5090341;28;20031;-75
2022/11/08 10:29:35;;;;;;;4.10;1.92;;;28.30;28.50;;;20.69;50.16;95855.44;5085291;28;20024;-73
2022/11/08 10:32:10;;;;;;;6.82;1.90;;;28.30;29.10;;;20.86;50.82;95863.31;5073433;28;20023;-75
2022/11/08 10:34:55;;;;;;;3.15;1.65;;;28.10;29.10;;;20.86;49.10;95863.31;5088884;27;20048;-75
2022/11/08 10:37:20;;;;;;;3.50;2.00;;;27.50;29.80;;;20.85;52.73;95856.34;5105137;27;20044;-73
2022/11/08 10:39:56;;;;;;;4.13;1.80;;;26.60;31.10;;;20.78;48.46;95843.19;5071696;28;20038;-74
2022/11/08 10:42:37;;;;;;;3.17;1.85;;;26.20;32.10;;;20.70;49.57;95843.69;5071942;28;20036;-75
2022/11/08 10:45:03;;;;;;;3.80;1.77;;;26.60;31.30;;;20.53;51.53;95849.19;5085151;28;20097;-75
2022/11/08 10:47:30;;;;;;;3.58;1.67;;;26.90;31.60;;;20.44;51.33;95848.88;5072709;28;20506;-75
2022/11/08 10:49:56;;;;;;;3.70;2.08;;;26.50;31.70;;;20.39;50.93;95850.69;5072788;28;20134;-77